createdAt,value
2018-12-31T00:03:49.501Z,2.90
2018-12-31T00:06:31.565Z,2.97
2018-12-31T00:09:13.055Z,3.13
2018-12-31T00:11:54.351Z,3.80
2018-12-31T00:14:35.882Z,2.30
2018-12-31T00:17:17.691Z,3.60
2018-12-31T00:19:59.272Z,2.63
2018-12-31T00:22:40.960Z,2.50
2018-12-31T00:25:22.602Z,2.97
2018-12-31T00:28:04.003Z,2.50
2018-12-31T00:30:45.769Z,2.90
2018-12-31T00:33:27.635Z,2.57
2018-12-31T00:36:09.599Z,3.10
2018-12-31T00:38:50.162Z,2.43
2018-12-31T00:41:32.351Z,2.53
2018-12-31T00:44:13.684Z,3.27
2018-12-31T00:46:55.523Z,2.60
2018-12-31T00:49:36.963Z,2.50
2018-12-31T00:52:19.239Z,2.80
2018-12-31T00:55:00.751Z,3.10
2018-12-31T00:57:42.406Z,2.60
2018-12-31T01:00:24.586Z,2.40
2018-12-31T01:03:06.339Z,2.60
2018-12-31T01:05:47.738Z,2.70
2018-12-31T01:08:29.920Z,4.93
2018-12-31T01:11:11.734Z,2.77
2018-12-31T01:13:53.884Z,3.60
2018-12-31T01:16:35.503Z,3.07
2018-12-31T01:19:17.938Z,2.70
2018-12-31T01:21:59.474Z,2.70
2018-12-31T01:24:41.607Z,2.73
2018-12-31T01:27:23.507Z,2.97
2018-12-31T01:30:05.266Z,3.17
2018-12-31T01:32:46.939Z,3.23
2018-12-31T01:35:28.563Z,3.00
2018-12-31T01:38:10.031Z,3.03
2018-12-31T01:40:51.780Z,2.83
2018-12-31T01:43:33.574Z,3.70
2018-12-31T01:46:14.911Z,2.67
2018-12-31T01:48:56.554Z,2.93
2018-12-31T01:51:37.994Z,3.17
2018-12-31T01:54:19.365Z,3.10
2018-12-31T01:57:01.326Z,2.90
2018-12-31T01:59:43.283Z,3.00
2018-12-31T02:02:25.062Z,3.43
2018-12-31T02:05:07.127Z,3.30
2018-12-31T02:07:49.130Z,3.53
2018-12-31T02:10:30.751Z,3.17
2018-12-31T02:13:13.088Z,3.13
2018-12-31T02:15:53.690Z,3.10
2018-12-31T02:18:35.366Z,2.47
2018-12-31T02:21:16.900Z,2.70
2018-12-31T02:23:58.576Z,3.37
2018-12-31T02:26:40.046Z,3.20
2018-12-31T02:29:21.751Z,2.93
2018-12-31T02:32:03.821Z,2.90
2018-12-31T02:34:46.425Z,3.17
2018-12-31T02:37:28.666Z,3.00
2018-12-31T02:40:10.099Z,3.03
2018-12-31T02:42:51.540Z,2.77
2018-12-31T02:45:33.355Z,3.00
2018-12-31T02:48:15.980Z,2.80
2018-12-31T02:50:57.674Z,2.87
2018-12-31T02:53:39.243Z,2.80
2018-12-31T02:56:20.910Z,3.00
2018-12-31T02:59:02.320Z,2.77
2018-12-31T03:01:44.535Z,3.00
2018-12-31T03:04:26.207Z,3.27
2018-12-31T03:07:08.659Z,3.17
2018-12-31T03:09:50.000Z,3.93
2018-12-31T03:12:31.920Z,3.10
2018-12-31T03:15:13.586Z,3.43
2018-12-31T03:17:55.427Z,3.23
2018-12-31T03:20:37.127Z,3.03
2018-12-31T03:23:18.499Z,3.50
2018-12-31T03:26:00.183Z,2.97
2018-12-31T03:28:41.579Z,3.40
2018-12-31T03:34:19.667Z,2.93
2018-12-31T03:37:01.618Z,2.83
2018-12-31T03:39:43.243Z,2.87
2018-12-31T03:42:24.732Z,2.63
2018-12-31T03:45:06.639Z,3.20
2018-12-31T03:47:48.515Z,3.20
2018-12-31T03:50:30.131Z,2.67
2018-12-31T03:53:11.629Z,3.27
2018-12-31T03:55:53.100Z,3.30
2018-12-31T03:58:35.144Z,2.87
2018-12-31T04:01:17.050Z,2.97
2018-12-31T04:03:58.446Z,3.30
2018-12-31T04:06:41.023Z,2.80
2018-12-31T04:09:22.346Z,2.90
2018-12-31T04:12:04.515Z,2.70
2018-12-31T04:14:46.192Z,2.77
2018-12-31T04:17:27.911Z,3.10
2018-12-31T04:20:09.439Z,2.73
2018-12-31T04:22:51.013Z,2.57
2018-12-31T04:25:33.247Z,3.83
2018-12-31T04:28:14.654Z,2.60
2018-12-31T04:30:56.009Z,2.80
2018-12-31T04:33:37.714Z,2.90
2018-12-31T04:36:19.135Z,2.80
2018-12-31T04:39:01.029Z,3.00
2018-12-31T04:41:42.684Z,3.13
2018-12-31T04:44:24.646Z,2.97
2018-12-31T04:47:06.230Z,3.37
2018-12-31T04:49:47.833Z,3.00
2018-12-31T04:52:29.343Z,2.53
2018-12-31T04:55:11.535Z,2.83
2018-12-31T04:57:53.670Z,2.37
2018-12-31T05:00:35.417Z,3.00
2018-12-31T05:03:17.135Z,3.03
2018-12-31T05:05:58.855Z,2.63
2018-12-31T05:08:40.238Z,3.00
2018-12-31T05:11:21.942Z,2.70
2018-12-31T05:14:03.443Z,3.13
2018-12-31T05:16:45.579Z,3.30
2018-12-31T05:19:27.684Z,2.47
2018-12-31T05:22:09.199Z,2.70
2018-12-31T05:24:50.567Z,2.70
2018-12-31T05:27:32.427Z,2.90
2018-12-31T05:30:14.499Z,2.93
2018-12-31T05:32:56.515Z,2.63
2018-12-31T05:35:38.451Z,2.73
2018-12-31T05:38:19.915Z,2.77
2018-12-31T05:41:01.655Z,2.60
2018-12-31T05:43:43.897Z,2.87
2018-12-31T05:46:25.923Z,2.80
2018-12-31T05:49:08.215Z,2.80
2018-12-31T05:51:50.136Z,2.93
2018-12-31T05:54:31.822Z,2.80
2018-12-31T05:57:13.330Z,2.70
2018-12-31T05:59:55.195Z,2.97
2018-12-31T06:02:36.891Z,2.70
2018-12-31T06:05:18.522Z,2.70
2018-12-31T06:07:59.894Z,3.00
2018-12-31T06:10:41.419Z,2.70
2018-12-31T06:13:22.999Z,2.93
2018-12-31T06:16:04.931Z,2.60
2018-12-31T06:18:46.499Z,2.70
2018-12-31T06:21:29.279Z,3.00
2018-12-31T06:24:10.730Z,3.10
2018-12-31T06:26:52.322Z,2.70
2018-12-31T06:29:33.735Z,2.57
2018-12-31T06:32:15.546Z,2.80
2018-12-31T06:34:57.440Z,2.67
2018-12-31T06:37:39.261Z,2.90
2018-12-31T06:40:21.138Z,2.67
2018-12-31T06:43:02.671Z,3.13
2018-12-31T06:45:44.347Z,2.87
2018-12-31T06:48:26.187Z,2.50
2018-12-31T06:51:08.171Z,2.70
2018-12-31T06:53:50.264Z,2.73
2018-12-31T06:56:32.299Z,3.00
2018-12-31T06:59:14.179Z,2.60
2018-12-31T07:01:55.938Z,2.97
2018-12-31T07:04:37.788Z,3.40
2018-12-31T07:07:19.486Z,2.80
2018-12-31T07:10:01.158Z,2.80
2018-12-31T07:12:42.601Z,2.60
2018-12-31T07:15:24.410Z,2.83
2018-12-31T07:18:05.793Z,2.90
2018-12-31T07:20:47.604Z,2.83
2018-12-31T07:23:28.454Z,3.03
2018-12-31T07:26:10.682Z,2.47
2018-12-31T07:28:52.519Z,2.70
2018-12-31T07:31:33.999Z,2.37
2018-12-31T07:34:15.842Z,2.70
2018-12-31T07:36:56.726Z,2.80
2018-12-31T07:39:38.479Z,2.53
2018-12-31T07:42:18.606Z,2.70
2018-12-31T07:45:00.210Z,2.77
2018-12-31T07:47:41.774Z,2.87
2018-12-31T07:50:23.180Z,2.83
2018-12-31T07:53:04.782Z,2.77
2018-12-31T07:55:47.080Z,2.57
2018-12-31T07:58:29.536Z,3.50
2018-12-31T08:01:11.210Z,2.70
2018-12-31T08:03:53.218Z,2.70
2018-12-31T08:06:34.795Z,2.70
2018-12-31T08:09:16.194Z,2.93
2018-12-31T08:11:57.786Z,2.67
2018-12-31T08:14:39.278Z,2.60
2018-12-31T08:17:20.811Z,2.90
2018-12-31T08:20:03.106Z,2.97
2018-12-31T08:22:45.375Z,2.87
2018-12-31T08:25:27.274Z,3.00
2018-12-31T08:28:08.863Z,2.70
2018-12-31T08:30:50.562Z,2.90
2018-12-31T08:33:32.703Z,2.60
2018-12-31T08:36:14.431Z,2.80
2018-12-31T08:38:56.595Z,2.97
2018-12-31T08:41:38.413Z,2.73
2018-12-31T08:44:20.070Z,3.40
2018-12-31T08:47:02.261Z,2.70
2018-12-31T08:49:43.930Z,2.77
2018-12-31T08:52:25.360Z,2.70
2018-12-31T08:55:07.011Z,2.87
2018-12-31T08:57:48.576Z,3.67
2018-12-31T09:00:30.206Z,2.67
2018-12-31T09:03:12.862Z,2.87
2018-12-31T09:05:55.042Z,3.17
2018-12-31T09:08:36.731Z,3.27
2018-12-31T09:11:18.302Z,3.00
2018-12-31T09:14:00.102Z,3.00
2018-12-31T09:16:41.606Z,2.30
2018-12-31T09:19:23.222Z,2.63
2018-12-31T09:22:05.046Z,2.63
2018-12-31T09:24:47.018Z,2.60
2018-12-31T09:27:28.510Z,2.70
2018-12-31T09:30:10.323Z,2.60
2018-12-31T09:32:52.196Z,2.80
2018-12-31T09:35:33.915Z,4.83
2018-12-31T09:38:15.927Z,2.47
2018-12-31T09:40:57.276Z,2.80
2018-12-31T09:43:38.885Z,2.73
2018-12-31T09:46:20.383Z,2.90
2018-12-31T09:49:02.078Z,2.80
2018-12-31T09:51:43.651Z,2.80
2018-12-31T09:54:25.183Z,2.50
2018-12-31T09:57:06.742Z,2.60
2018-12-31T09:59:48.058Z,3.00
2018-12-31T10:02:29.866Z,3.17
2018-12-31T10:05:11.387Z,2.63
2018-12-31T10:07:53.847Z,2.57
2018-12-31T10:10:35.951Z,2.60
2018-12-31T10:13:17.697Z,2.67
2018-12-31T10:15:59.582Z,2.77
2018-12-31T10:18:41.698Z,2.83
2018-12-31T10:21:23.251Z,2.50
2018-12-31T10:24:04.661Z,2.83
2018-12-31T10:26:45.363Z,2.87
2018-12-31T10:29:27.150Z,2.80
2018-12-31T10:32:09.142Z,2.83
2018-12-31T10:34:50.915Z,2.70
2018-12-31T10:37:32.588Z,2.40
2018-12-31T10:40:15.470Z,2.50
2018-12-31T10:42:57.246Z,2.97
2018-12-31T10:45:39.115Z,2.67
2018-12-31T10:48:21.107Z,2.87
2018-12-31T10:51:03.312Z,2.47
2018-12-31T10:53:44.937Z,2.70
2018-12-31T10:56:26.638Z,2.83
2018-12-31T10:59:08.031Z,2.63
2018-12-31T11:01:50.322Z,2.53
2018-12-31T11:04:31.726Z,2.57
2018-12-31T11:07:14.135Z,2.40
2018-12-31T11:09:55.418Z,2.63
2018-12-31T11:12:37.562Z,2.50
2018-12-31T11:15:18.957Z,2.63
2018-12-31T11:18:00.658Z,2.60
2018-12-31T11:20:42.308Z,2.60
2018-12-31T11:23:23.748Z,2.70
2018-12-31T11:26:05.079Z,2.50
2018-12-31T11:28:47.207Z,2.60
2018-12-31T11:31:30.435Z,2.03
2018-12-31T11:34:12.694Z,2.40
2018-12-31T11:36:54.442Z,2.57
2018-12-31T11:39:35.199Z,2.57
2018-12-31T11:42:16.771Z,2.90
2018-12-31T11:44:58.886Z,2.30
2018-12-31T11:47:40.674Z,2.80
2018-12-31T11:50:22.316Z,2.20
2018-12-31T11:53:03.939Z,2.60
2018-12-31T11:55:45.965Z,2.40
2018-12-31T11:58:27.503Z,3.00
2018-12-31T12:01:09.414Z,2.43
2018-12-31T12:03:51.074Z,2.50
2018-12-31T12:06:32.936Z,2.83
2018-12-31T12:09:14.299Z,2.53
2018-12-31T12:11:55.895Z,2.20
2018-12-31T12:14:37.299Z,2.33
2018-12-31T12:17:19.031Z,2.30
2018-12-31T12:20:00.994Z,2.53
2018-12-31T12:22:43.447Z,2.40
2018-12-31T12:25:24.822Z,2.37
2018-12-31T12:28:06.530Z,2.10
2018-12-31T12:30:47.983Z,2.40
2018-12-31T12:33:30.135Z,2.30
2018-12-31T12:36:12.159Z,2.40
2018-12-31T12:38:53.687Z,2.37
2018-12-31T12:41:34.531Z,2.60
2018-12-31T12:44:16.483Z,2.50
2018-12-31T12:46:57.827Z,2.57
2018-12-31T12:49:40.191Z,2.53
2018-12-31T12:52:21.943Z,2.83
2018-12-31T12:55:03.853Z,2.50
2018-12-31T12:57:45.246Z,2.20
2018-12-31T13:00:26.870Z,2.50
2018-12-31T13:03:08.535Z,2.70
2018-12-31T13:05:49.951Z,3.13
2018-12-31T13:08:31.475Z,2.47
2018-12-31T13:11:14.258Z,2.60
2018-12-31T13:13:56.266Z,2.47
2018-12-31T13:16:38.334Z,2.43
2018-12-31T13:19:19.827Z,2.43
2018-12-31T13:22:01.819Z,2.57
2018-12-31T13:24:43.725Z,2.30
2018-12-31T13:27:25.295Z,2.07
2018-12-31T13:30:06.678Z,2.50
2018-12-31T13:32:48.538Z,2.20
2018-12-31T13:35:29.907Z,2.60
2018-12-31T13:38:11.599Z,3.00
2018-12-31T13:40:53.030Z,2.43
2018-12-31T13:43:33.728Z,2.43
2018-12-31T13:46:15.461Z,2.30
2018-12-31T13:48:57.227Z,2.30
2018-12-31T13:51:38.822Z,2.20
2018-12-31T13:54:20.827Z,2.43
2018-12-31T13:57:02.506Z,2.60
2018-12-31T13:59:44.846Z,2.30
2018-12-31T14:02:26.758Z,2.23
2018-12-31T14:05:08.807Z,2.50
2018-12-31T14:07:49.502Z,2.23
2018-12-31T14:10:31.778Z,2.20
2018-12-31T14:13:14.174Z,2.20
2018-12-31T14:15:55.763Z,2.63
2018-12-31T14:18:37.729Z,2.70
2018-12-31T14:21:19.434Z,2.33
2018-12-31T14:24:00.783Z,2.33
2018-12-31T14:26:42.964Z,2.60
2018-12-31T14:29:24.607Z,2.30
2018-12-31T14:32:06.266Z,2.43
2018-12-31T14:34:47.586Z,2.60
2018-12-31T14:37:29.348Z,2.40
2018-12-31T14:40:11.067Z,2.20
2018-12-31T14:42:52.835Z,2.20
2018-12-31T14:45:34.351Z,2.50
2018-12-31T14:48:16.297Z,2.70
2018-12-31T14:50:57.708Z,2.60
2018-12-31T14:53:39.111Z,2.60
2018-12-31T14:56:20.628Z,2.50
2018-12-31T14:59:02.424Z,2.30
2018-12-31T15:01:44.610Z,2.30
2018-12-31T15:04:26.400Z,2.20
2018-12-31T15:07:07.855Z,2.20
2018-12-31T15:09:49.343Z,2.57
2018-12-31T15:12:30.903Z,2.70
2018-12-31T15:15:12.339Z,2.80
2018-12-31T15:17:54.242Z,2.93
2018-12-31T15:20:36.771Z,3.07
2018-12-31T15:23:19.382Z,2.70
2018-12-31T15:26:01.550Z,2.53
2018-12-31T15:28:42.958Z,2.43
2018-12-31T15:31:24.989Z,2.70
2018-12-31T15:34:07.239Z,2.63
2018-12-31T15:36:48.955Z,2.60
2018-12-31T15:39:30.855Z,2.67
2018-12-31T15:42:12.282Z,2.47
2018-12-31T15:44:54.083Z,2.50
2018-12-31T15:47:35.471Z,2.40
2018-12-31T15:50:17.059Z,2.50
2018-12-31T15:52:58.648Z,2.70
2018-12-31T15:55:40.063Z,2.60
2018-12-31T15:58:21.439Z,2.23
2018-12-31T16:01:02.818Z,2.47
2018-12-31T16:03:44.795Z,2.40
2018-12-31T16:06:25.391Z,2.50
2018-12-31T16:09:07.070Z,3.10
2018-12-31T16:11:48.356Z,2.40
2018-12-31T16:14:30.043Z,2.37
2018-12-31T16:17:11.667Z,2.97
2018-12-31T16:19:53.342Z,2.60
2018-12-31T16:22:35.407Z,2.63
2018-12-31T16:25:16.811Z,2.70
2018-12-31T16:27:58.591Z,3.00
2018-12-31T16:30:40.134Z,2.70
2018-12-31T16:33:22.515Z,2.50
2018-12-31T16:36:04.967Z,2.83
2018-12-31T16:38:47.048Z,2.60
2018-12-31T16:41:28.927Z,2.60
2018-12-31T16:44:10.412Z,2.77
2018-12-31T16:46:52.055Z,2.93
2018-12-31T16:49:33.701Z,2.90
2018-12-31T16:52:15.266Z,2.80
2018-12-31T16:54:57.188Z,2.67
2018-12-31T16:57:38.775Z,2.63
2018-12-31T17:00:20.767Z,3.10
2018-12-31T17:03:02.873Z,2.80
2018-12-31T17:05:44.959Z,2.57
2018-12-31T17:08:26.839Z,2.73
2018-12-31T17:11:08.690Z,2.73
2018-12-31T17:13:50.177Z,2.60
2018-12-31T17:16:32.054Z,2.90
2018-12-31T17:19:13.827Z,3.00
2018-12-31T17:21:55.507Z,2.50
2018-12-31T17:24:37.274Z,3.60
2018-12-31T17:27:18.758Z,3.03
2018-12-31T17:30:00.986Z,3.00
2018-12-31T17:32:43.114Z,2.77
2018-12-31T17:35:25.266Z,3.07
2018-12-31T17:38:07.307Z,3.13
2018-12-31T17:40:49.566Z,3.30
2018-12-31T17:43:31.439Z,3.53
2018-12-31T17:46:12.580Z,3.97
2018-12-31T17:48:54.219Z,3.03
2018-12-31T17:51:36.326Z,3.30
2018-12-31T17:54:17.751Z,3.17
2018-12-31T17:56:59.983Z,3.03
2018-12-31T17:59:41.503Z,3.43
2018-12-31T18:02:23.123Z,3.20
2018-12-31T18:05:04.577Z,3.37
2018-12-31T18:07:46.074Z,3.60
2018-12-31T18:10:27.583Z,3.60
2018-12-31T18:13:09.670Z,3.30
2018-12-31T18:15:51.387Z,3.67
2018-12-31T18:18:33.051Z,3.23
2018-12-31T18:21:14.508Z,3.40
2018-12-31T18:23:54.811Z,3.33
2018-12-31T18:26:36.699Z,3.40
2018-12-31T18:29:18.290Z,3.37
2018-12-31T18:32:00.855Z,3.37
2018-12-31T18:34:43.054Z,3.87
2018-12-31T18:37:24.899Z,3.47
2018-12-31T18:40:06.228Z,3.20
2018-12-31T18:42:47.554Z,3.40
2018-12-31T18:45:29.722Z,5.73
2018-12-31T18:48:12.022Z,3.60
2018-12-31T18:50:53.422Z,4.00
2018-12-31T18:53:35.126Z,3.40
2018-12-31T18:56:16.683Z,4.03
2018-12-31T18:58:58.275Z,4.23
2018-12-31T19:01:39.666Z,4.37
2018-12-31T19:04:21.041Z,3.93
2018-12-31T19:07:03.629Z,3.87
2018-12-31T19:09:45.278Z,3.83
2018-12-31T19:12:26.762Z,3.67
2018-12-31T19:15:08.321Z,4.30
2018-12-31T19:17:51.586Z,4.30
2018-12-31T19:20:33.855Z,4.57
2018-12-31T19:23:15.151Z,3.83
2018-12-31T19:25:55.791Z,3.67
2018-12-31T19:28:37.482Z,3.90
2018-12-31T19:31:18.970Z,4.20
2018-12-31T19:34:01.570Z,4.20
2018-12-31T19:36:44.092Z,4.30
2018-12-31T19:39:26.215Z,4.47
2018-12-31T19:42:07.590Z,3.90
2018-12-31T19:44:49.126Z,4.23
2018-12-31T19:47:30.808Z,3.93
2018-12-31T19:50:12.923Z,3.70
2018-12-31T19:52:54.351Z,4.33
2018-12-31T19:55:36.073Z,4.67
2018-12-31T19:58:18.298Z,4.30
2018-12-31T20:01:00.391Z,4.43
2018-12-31T20:03:43.066Z,4.60
2018-12-31T20:06:24.619Z,4.50
2018-12-31T20:09:06.098Z,4.37
2018-12-31T20:11:47.833Z,4.40
2018-12-31T20:14:29.788Z,4.63
2018-12-31T20:17:11.639Z,4.77
2018-12-31T20:19:53.422Z,4.70
2018-12-31T20:22:35.275Z,4.37
2018-12-31T20:25:17.191Z,4.50
2018-12-31T20:27:58.699Z,5.17
2018-12-31T20:30:40.670Z,4.93
2018-12-31T20:33:22.399Z,4.20
2018-12-31T20:36:02.582Z,4.60
2018-12-31T20:38:44.651Z,5.10
2018-12-31T20:41:26.407Z,4.73
2018-12-31T20:44:08.036Z,4.40
2018-12-31T20:46:50.270Z,4.70
2018-12-31T20:49:31.998Z,4.47
2018-12-31T20:52:13.614Z,4.50
2018-12-31T20:54:55.899Z,4.70
2018-12-31T20:57:37.586Z,4.90
2018-12-31T21:00:19.030Z,4.40
2018-12-31T21:03:00.979Z,5.53
2018-12-31T21:05:42.804Z,4.47
2018-12-31T21:08:24.495Z,5.23
2018-12-31T21:11:05.935Z,5.20
2018-12-31T21:13:47.470Z,4.60
2018-12-31T21:16:29.171Z,4.67
2018-12-31T21:19:10.883Z,4.43
2018-12-31T21:21:52.290Z,4.67
2018-12-31T21:24:33.727Z,4.93
2018-12-31T21:27:15.526Z,4.77
2018-12-31T21:29:57.716Z,4.80
2018-12-31T21:32:39.687Z,5.33
2018-12-31T21:35:21.114Z,4.60
2018-12-31T21:38:02.967Z,5.40
2018-12-31T21:40:44.282Z,4.97
2018-12-31T21:43:26.014Z,4.93
2018-12-31T21:46:07.555Z,5.17
2018-12-31T21:48:48.959Z,5.17
2018-12-31T21:51:29.627Z,4.87
2018-12-31T21:54:11.291Z,5.07
2018-12-31T21:56:52.833Z,4.80
2018-12-31T21:59:35.298Z,5.17
2018-12-31T22:02:16.655Z,5.93
2018-12-31T22:04:58.099Z,5.43
2018-12-31T22:07:39.870Z,5.17
2018-12-31T22:10:21.367Z,5.20
2018-12-31T22:13:03.987Z,5.80
2018-12-31T22:15:45.554Z,5.93
2018-12-31T22:18:27.243Z,5.97
2018-12-31T22:21:08.891Z,5.20
2018-12-31T22:23:50.836Z,5.80
2018-12-31T22:26:31.062Z,5.33
2018-12-31T22:29:13.303Z,5.57
2018-12-31T22:31:55.143Z,6.27
2018-12-31T22:34:37.463Z,6.30
2018-12-31T22:37:19.323Z,5.93
2018-12-31T22:40:00.886Z,5.27
2018-12-31T22:42:42.623Z,6.17
2018-12-31T22:45:24.445Z,6.17
2018-12-31T22:48:06.406Z,6.13
2018-12-31T22:50:48.498Z,5.67
2018-12-31T22:53:30.038Z,6.10
2018-12-31T22:56:11.923Z,6.03
2018-12-31T22:58:53.710Z,6.40
2018-12-31T23:01:35.546Z,6.00
2018-12-31T23:04:17.754Z,6.20
2018-12-31T23:06:59.071Z,6.23
2018-12-31T23:09:41.576Z,6.47
2018-12-31T23:12:24.115Z,6.03
2018-12-31T23:15:05.631Z,6.67
2018-12-31T23:17:47.719Z,6.63
2018-12-31T23:20:30.234Z,8.57
2018-12-31T23:23:12.133Z,9.40
2018-12-31T23:25:52.314Z,9.07
2018-12-31T23:28:34.527Z,8.97
2018-12-31T23:31:16.787Z,10.57
2018-12-31T23:33:58.844Z,11.53
2018-12-31T23:36:40.630Z,11.93
2018-12-31T23:39:22.122Z,12.57
2018-12-31T23:42:03.830Z,12.83
2018-12-31T23:44:52.920Z,15.00
2018-12-31T23:47:29.794Z,14.70
2018-12-31T23:50:11.238Z,17.37
2018-12-31T23:52:52.923Z,16.70
2018-12-31T23:55:34.318Z,17.07
2018-12-31T23:58:16.027Z,16.70
